sensor_id;sensor_type;location;lat;lon;timestamp;temperature;humidity
13848;DHT22;6994;49.752;6.094;2022-10-26T00:02:10;12.50;99.90
13848;DHT22;6994;49.752;6.094;2022-10-26T00:04:37;12.70;99.90
13848;DHT22;6994;49.752;6.094;2022-10-26T00:07:05;12.70;99.90
13848;DHT22;6994;49.752;6.094;2022-10-26T00:09:32;12.70;99.90
13848;DHT22;6994;49.752;6.094;2022-10-26T00:11:59;12.70;99.90
13848;DHT22;6994;49.752;6.094;2022-10-26T00:14:27;12.60;99.90
13848;DHT22;6994;49.752;6.094;2022-10-26T00:16:53;12.60;99.90
13848;DHT22;6994;49.752;6.094;2022-10-26T00:19:21;12.50;99.90
13848;DHT22;6994;49.752;6.094;2022-10-26T00:21:49;12.50;99.90
13848;DHT22;6994;49.752;6.094;2022-10-26T00:24:16;12.70;99.90
13848;DHT22;6994;49.752;6.094;2022-10-26T00:26:43;12.70;99.90
13848;DHT22;6994;49.752;6.094;2022-10-26T00:29:11;12.90;99.90
13848;DHT22;6994;49.752;6.094;2022-10-26T00:31:38;12.90;99.90
13848;DHT22;6994;49.752;6.094;2022-10-26T00:34:05;12.80;99.90
13848;DHT22;6994;49.752;6.094;2022-10-26T00:36:32;12.80;99.90
13848;DHT22;6994;49.752;6.094;2022-10-26T00:38:59;12.70;99.90
13848;DHT22;6994;49.752;6.094;2022-10-26T00:41:28;12.70;99.90
13848;DHT22;6994;49.752;6.094;2022-10-26T00:43:54;12.60;99.90
13848;DHT22;6994;49.752;6.094;2022-10-26T00:46:28;12.50;99.90
13848;DHT22;6994;49.752;6.094;2022-10-26T00:49:13;12.50;99.90
13848;DHT22;6994;49.752;6.094;2022-10-26T00:51:41;12.50;99.90
13848;DHT22;6994;49.752;6.094;2022-10-26T00:54:08;12.50;99.90
13848;DHT22;6994;49.752;6.094;2022-10-26T00:56:33;12.50;99.90
13848;DHT22;6994;49.752;6.094;2022-10-26T00:59:05;12.50;99.90
13848;DHT22;6994;49.752;6.094;2022-10-26T01:01:31;12.50;99.90
13848;DHT22;6994;49.752;6.094;2022-10-26T01:03:58;12.70;99.90
13848;DHT22;6994;49.752;6.094;2022-10-26T01:06:26;12.70;99.90
13848;DHT22;6994;49.752;6.094;2022-10-26T01:08:52;12.70;99.90
13848;DHT22;6994;49.752;6.094;2022-10-26T01:11:19;12.70;99.90
13848;DHT22;6994;49.752;6.094;2022-10-26T01:13:47;12.70;99.90
13848;DHT22;6994;49.752;6.094;2022-10-26T01:21:59;12.60;99.90
13848;DHT22;6994;49.752;6.094;2022-10-26T01:35:51;12.40;99.90
13848;DHT22;6994;49.752;6.094;2022-10-26T01:38:46;12.70;99.90
13848;DHT22;6994;49.752;6.094;2022-10-26T01:41:24;13.00;99.90
13848;DHT22;6994;49.752;6.094;2022-10-26T01:43:58;13.00;99.90
13848;DHT22;6994;49.752;6.094;2022-10-26T01:46:23;13.10;99.90
13848;DHT22;6994;49.752;6.094;2022-10-26T01:48:54;13.10;99.90
13848;DHT22;6994;49.752;6.094;2022-10-26T01:51:20;12.90;99.90
13848;DHT22;6994;49.752;6.094;2022-10-26T01:53:47;12.80;99.90
13848;DHT22;6994;49.752;6.094;2022-10-26T01:56:20;12.70;99.90
13848;DHT22;6994;49.752;6.094;2022-10-26T02:01:51;12.60;99.90
13848;DHT22;6994;49.752;6.094;2022-10-26T02:05:02;12.50;99.90
13848;DHT22;6994;49.752;6.094;2022-10-26T02:07:00;12.40;99.90
13848;DHT22;6994;49.752;6.094;2022-10-26T02:12:10;12.30;99.90
13848;DHT22;6994;49.752;6.094;2022-10-26T02:14:49;12.30;99.90
13848;DHT22;6994;49.752;6.094;2022-10-26T02:19:46;12.50;99.90
13848;DHT22;6994;49.752;6.094;2022-10-26T02:22:14;12.50;99.90
13848;DHT22;6994;49.752;6.094;2022-10-26T02:24:40;12.50;99.90
13848;DHT22;6994;49.752;6.094;2022-10-26T02:27:09;12.70;99.90
13848;DHT22;6994;49.752;6.094;2022-10-26T02:29:35;12.70;99.90
13848;DHT22;6994;49.752;6.094;2022-10-26T02:32:02;12.70;99.90
13848;DHT22;6994;49.752;6.094;2022-10-26T02:34:29;12.80;99.90
13848;DHT22;6994;49.752;6.094;2022-10-26T02:36:56;12.90;99.90
13848;DHT22;6994;49.752;6.094;2022-10-26T02:39:23;12.80;99.90
13848;DHT22;6994;49.752;6.094;2022-10-26T02:41:51;12.70;99.90
13848;DHT22;6994;49.752;6.094;2022-10-26T02:44:22;12.70;99.90
13848;DHT22;6994;49.752;6.094;2022-10-26T02:46:48;12.60;99.90
13848;DHT22;6994;49.752;6.094;2022-10-26T02:49:15;12.50;99.90
13848;DHT22;6994;49.752;6.094;2022-10-26T02:51:49;12.50;99.90
13848;DHT22;6994;49.752;6.094;2022-10-26T02:57:06;12.50;99.90
13848;DHT22;6994;49.752;6.094;2022-10-26T02:59:31;12.40;99.90
13848;DHT22;6994;49.752;6.094;2022-10-26T03:01:58;12.30;99.90
13848;DHT22;6994;49.752;6.094;2022-10-26T03:04:28;12.20;99.90
13848;DHT22;6994;49.752;6.094;2022-10-26T03:06:55;12.40;99.90
13848;DHT22;6994;49.752;6.094;2022-10-26T03:09:22;12.40;99.90
13848;DHT22;6994;49.752;6.094;2022-10-26T03:11:49;12.40;99.90
13848;DHT22;6994;49.752;6.094;2022-10-26T03:14:17;12.50;99.90
13848;DHT22;6994;49.752;6.094;2022-10-26T03:16:44;12.50;99.90
13848;DHT22;6994;49.752;6.094;2022-10-26T03:19:11;12.40;99.90
13848;DHT22;6994;49.752;6.094;2022-10-26T03:21:38;12.30;99.90
13848;DHT22;6994;49.752;6.094;2022-10-26T03:24:05;12.30;99.90
13848;DHT22;6994;49.752;6.094;2022-10-26T03:26:33;12.20;99.90
13848;DHT22;6994;49.752;6.094;2022-10-26T03:29:00;12.20;99.90
13848;DHT22;6994;49.752;6.094;2022-10-26T03:31:27;12.10;99.90
13848;DHT22;6994;49.752;6.094;2022-10-26T03:33:54;12.10;99.90
13848;DHT22;6994;49.752;6.094;2022-10-26T03:36:21;12.10;99.90
13848;DHT22;6994;49.752;6.094;2022-10-26T03:38:49;12.00;99.90
13848;DHT22;6994;49.752;6.094;2022-10-26T03:41:16;12.00;99.90
13848;DHT22;6994;49.752;6.094;2022-10-26T03:43:43;12.00;99.90
13848;DHT22;6994;49.752;6.094;2022-10-26T03:46:10;12.00;99.90
13848;DHT22;6994;49.752;6.094;2022-10-26T03:48:37;12.30;99.90
13848;DHT22;6994;49.752;6.094;2022-10-26T03:51:05;12.40;99.90
13848;DHT22;6994;49.752;6.094;2022-10-26T03:53:32;12.60;99.90
13848;DHT22;6994;49.752;6.094;2022-10-26T03:55:59;12.70;99.90
13848;DHT22;6994;49.752;6.094;2022-10-26T03:58:26;12.60;99.90
13848;DHT22;6994;49.752;6.094;2022-10-26T04:00:54;12.50;99.90
13848;DHT22;6994;49.752;6.094;2022-10-26T04:03:21;12.50;99.90
13848;DHT22;6994;49.752;6.094;2022-10-26T04:05:48;12.40;99.90
13848;DHT22;6994;49.752;6.094;2022-10-26T04:08:16;12.40;99.90
13848;DHT22;6994;49.752;6.094;2022-10-26T04:10:44;12.40;99.90
13848;DHT22;6994;49.752;6.094;2022-10-26T04:13:10;12.40;99.90
13848;DHT22;6994;49.752;6.094;2022-10-26T04:15:38;12.30;99.90
13848;DHT22;6994;49.752;6.094;2022-10-26T04:18:05;12.30;99.90
13848;DHT22;6994;49.752;6.094;2022-10-26T04:20:32;12.30;99.90
13848;DHT22;6994;49.752;6.094;2022-10-26T04:23:03;12.50;99.90
13848;DHT22;6994;49.752;6.094;2022-10-26T04:25:30;12.60;99.90
13848;DHT22;6994;49.752;6.094;2022-10-26T04:27:56;12.50;99.90
13848;DHT22;6994;49.752;6.094;2022-10-26T04:30:24;12.50;99.90
13848;DHT22;6994;49.752;6.094;2022-10-26T04:32:51;12.40;99.90
13848;DHT22;6994;49.752;6.094;2022-10-26T04:35:18;12.30;99.90
13848;DHT22;6994;49.752;6.094;2022-10-26T04:37:45;12.30;99.90
13848;DHT22;6994;49.752;6.094;2022-10-26T04:40:12;12.20;99.90
13848;DHT22;6994;49.752;6.094;2022-10-26T04:42:44;12.30;99.90
13848;DHT22;6994;49.752;6.094;2022-10-26T04:45:10;12.30;99.90
13848;DHT22;6994;49.752;6.094;2022-10-26T04:47:37;12.30;99.90
13848;DHT22;6994;49.752;6.094;2022-10-26T04:50:04;12.20;99.90
13848;DHT22;6994;49.752;6.094;2022-10-26T04:52:32;12.20;99.90
13848;DHT22;6994;49.752;6.094;2022-10-26T04:54:59;12.20;99.90
13848;DHT22;6994;49.752;6.094;2022-10-26T04:57:26;12.10;99.90
13848;DHT22;6994;49.752;6.094;2022-10-26T04:59:54;12.10;99.90
13848;DHT22;6994;49.752;6.094;2022-10-26T05:02:22;12.10;99.90
13848;DHT22;6994;49.752;6.094;2022-10-26T05:04:50;12.10;99.90
13848;DHT22;6994;49.752;6.094;2022-10-26T05:07:17;12.10;99.90
13848;DHT22;6994;49.752;6.094;2022-10-26T05:09:45;12.10;99.90
13848;DHT22;6994;49.752;6.094;2022-10-26T05:12:11;12.10;99.90
13848;DHT22;6994;49.752;6.094;2022-10-26T05:14:39;12.10;99.90
13848;DHT22;6994;49.752;6.094;2022-10-26T05:17:06;12.10;99.90
13848;DHT22;6994;49.752;6.094;2022-10-26T05:19:33;12.10;99.90
13848;DHT22;6994;49.752;6.094;2022-10-26T05:22:00;12.10;99.90
13848;DHT22;6994;49.752;6.094;2022-10-26T05:24:28;12.10;99.90
13848;DHT22;6994;49.752;6.094;2022-10-26T05:26:56;12.10;99.90
13848;DHT22;6994;49.752;6.094;2022-10-26T05:29:24;12.20;99.90
13848;DHT22;6994;49.752;6.094;2022-10-26T05:31:51;12.10;99.90
13848;DHT22;6994;49.752;6.094;2022-10-26T05:34:19;12.10;99.90
13848;DHT22;6994;49.752;6.094;2022-10-26T05:36:46;12.40;99.90
13848;DHT22;6994;49.752;6.094;2022-10-26T05:39:13;12.40;99.90
13848;DHT22;6994;49.752;6.094;2022-10-26T05:41:40;12.40;99.90
13848;DHT22;6994;49.752;6.094;2022-10-26T05:44:07;12.60;99.90
13848;DHT22;6994;49.752;6.094;2022-10-26T05:46:35;12.60;99.90
13848;DHT22;6994;49.752;6.094;2022-10-26T05:49:02;12.60;99.90
13848;DHT22;6994;49.752;6.094;2022-10-26T05:51:32;12.50;99.90
13848;DHT22;6994;49.752;6.094;2022-10-26T05:53:57;12.40;99.90
13848;DHT22;6994;49.752;6.094;2022-10-26T05:56:38;12.30;99.90
13848;DHT22;6994;49.752;6.094;2022-10-26T05:59:14;12.30;99.90
13848;DHT22;6994;49.752;6.094;2022-10-26T06:01:42;12.20;99.90
13848;DHT22;6994;49.752;6.094;2022-10-26T06:04:15;12.10;99.90
13848;DHT22;6994;49.752;6.094;2022-10-26T06:06:39;12.10;99.90
13848;DHT22;6994;49.752;6.094;2022-10-26T06:09:08;11.90;99.90
13848;DHT22;6994;49.752;6.094;2022-10-26T06:11:34;11.80;99.90
13848;DHT22;6994;49.752;6.094;2022-10-26T06:14:02;11.80;99.90
13848;DHT22;6994;49.752;6.094;2022-10-26T06:19:32;11.70;99.90
13848;DHT22;6994;49.752;6.094;2022-10-26T06:27:32;12.10;99.90
13848;DHT22;6994;49.752;6.094;2022-10-26T06:30:06;12.10;99.90
13848;DHT22;6994;49.752;6.094;2022-10-26T06:32:32;12.00;99.90
13848;DHT22;6994;49.752;6.094;2022-10-26T06:35:08;12.00;99.90
13848;DHT22;6994;49.752;6.094;2022-10-26T06:37:27;11.90;99.90
13848;DHT22;6994;49.752;6.094;2022-10-26T06:39:54;12.00;99.90
13848;DHT22;6994;49.752;6.094;2022-10-26T06:42:21;12.00;99.90
13848;DHT22;6994;49.752;6.094;2022-10-26T06:44:49;12.00;99.90
13848;DHT22;6994;49.752;6.094;2022-10-26T06:47:22;12.00;99.90
13848;DHT22;6994;49.752;6.094;2022-10-26T06:52:28;11.90;99.90
13848;DHT22;6994;49.752;6.094;2022-10-26T06:54:54;11.90;99.90
13848;DHT22;6994;49.752;6.094;2022-10-26T06:57:21;11.80;99.90
13848;DHT22;6994;49.752;6.094;2022-10-26T06:59:49;11.80;99.90
13848;DHT22;6994;49.752;6.094;2022-10-26T07:02:16;11.80;99.90
13848;DHT22;6994;49.752;6.094;2022-10-26T07:04:44;11.80;99.90
13848;DHT22;6994;49.752;6.094;2022-10-26T07:07:16;11.80;99.90
13848;DHT22;6994;49.752;6.094;2022-10-26T07:09:39;11.80;99.90
13848;DHT22;6994;49.752;6.094;2022-10-26T07:12:06;12.10;99.90
13848;DHT22;6994;49.752;6.094;2022-10-26T07:14:33;12.20;99.90
13848;DHT22;6994;49.752;6.094;2022-10-26T07:17:00;12.30;99.90
13848;DHT22;6994;49.752;6.094;2022-10-26T07:19:27;12.40;99.90
13848;DHT22;6994;49.752;6.094;2022-10-26T07:21:55;12.70;99.90
13848;DHT22;6994;49.752;6.094;2022-10-26T07:24:28;12.80;99.90
13848;DHT22;6994;49.752;6.094;2022-10-26T07:26:56;13.00;99.90
13848;DHT22;6994;49.752;6.094;2022-10-26T07:29:24;13.10;99.90
13848;DHT22;6994;49.752;6.094;2022-10-26T07:31:52;13.20;99.90
13848;DHT22;6994;49.752;6.094;2022-10-26T07:34:19;13.30;99.90
13848;DHT22;6994;49.752;6.094;2022-10-26T07:36:47;13.30;99.90
13848;DHT22;6994;49.752;6.094;2022-10-26T07:39:14;13.50;99.90
13848;DHT22;6994;49.752;6.094;2022-10-26T07:41:41;13.60;99.90
13848;DHT22;6994;49.752;6.094;2022-10-26T07:44:08;13.70;99.90
13848;DHT22;6994;49.752;6.094;2022-10-26T07:46:35;13.90;99.90
13848;DHT22;6994;49.752;6.094;2022-10-26T07:49:03;13.90;99.90
13848;DHT22;6994;49.752;6.094;2022-10-26T07:51:30;14.10;99.90
13848;DHT22;6994;49.752;6.094;2022-10-26T07:53:58;14.40;99.90
13848;DHT22;6994;49.752;6.094;2022-10-26T07:56:26;14.50;99.90
13848;DHT22;6994;49.752;6.094;2022-10-26T07:58:53;14.40;99.90
13848;DHT22;6994;49.752;6.094;2022-10-26T08:01:20;14.50;99.90
13848;DHT22;6994;49.752;6.094;2022-10-26T08:03:52;14.70;99.90
13848;DHT22;6994;49.752;6.094;2022-10-26T08:06:16;14.80;99.90
13848;DHT22;6994;49.752;6.094;2022-10-26T08:08:44;14.80;99.90
13848;DHT22;6994;49.752;6.094;2022-10-26T08:11:12;14.90;99.90
13848;DHT22;6994;49.752;6.094;2022-10-26T08:13:39;14.90;99.90
13848;DHT22;6994;49.752;6.094;2022-10-26T08:16:07;15.00;99.90
13848;DHT22;6994;49.752;6.094;2022-10-26T08:18:34;15.10;99.90
13848;DHT22;6994;49.752;6.094;2022-10-26T08:21:02;15.20;99.90
13848;DHT22;6994;49.752;6.094;2022-10-26T08:23:28;15.30;99.90
13848;DHT22;6994;49.752;6.094;2022-10-26T08:25:59;15.60;99.90
13848;DHT22;6994;49.752;6.094;2022-10-26T08:28:26;15.70;99.90
13848;DHT22;6994;49.752;6.094;2022-10-26T08:30:53;15.80;99.90
13848;DHT22;6994;49.752;6.094;2022-10-26T08:33:20;15.80;99.90
13848;DHT22;6994;49.752;6.094;2022-10-26T08:35:48;15.80;99.90
13848;DHT22;6994;49.752;6.094;2022-10-26T08:38:14;15.90;99.90
13848;DHT22;6994;49.752;6.094;2022-10-26T08:40:42;16.20;99.90
13848;DHT22;6994;49.752;6.094;2022-10-26T08:43:14;16.40;99.90
13848;DHT22;6994;49.752;6.094;2022-10-26T08:45:39;16.40;99.90
13848;DHT22;6994;49.752;6.094;2022-10-26T08:48:11;16.50;99.90
13848;DHT22;6994;49.752;6.094;2022-10-26T08:50:40;16.50;99.90
13848;DHT22;6994;49.752;6.094;2022-10-26T08:53:15;16.60;99.90
13848;DHT22;6994;49.752;6.094;2022-10-26T08:55:58;16.90;99.90
13848;DHT22;6994;49.752;6.094;2022-10-26T08:58:29;17.10;99.90
13848;DHT22;6994;49.752;6.094;2022-10-26T09:00:54;17.10;99.90
13848;DHT22;6994;49.752;6.094;2022-10-26T09:03:22;17.10;99.90
13848;DHT22;6994;49.752;6.094;2022-10-26T09:11:12;17.00;99.90
13848;DHT22;6994;49.752;6.094;2022-10-26T09:13:42;17.00;99.90
13848;DHT22;6994;49.752;6.094;2022-10-26T09:16:21;17.00;99.90
13848;DHT22;6994;49.752;6.094;2022-10-26T09:23:57;17.10;99.90
13848;DHT22;6994;49.752;6.094;2022-10-26T09:26:35;17.20;99.90
13848;DHT22;6994;49.752;6.094;2022-10-26T09:29:02;17.20;99.90
13848;DHT22;6994;49.752;6.094;2022-10-26T09:31:31;17.60;99.90
13848;DHT22;6994;49.752;6.094;2022-10-26T09:33:59;17.80;99.90
13848;DHT22;6994;49.752;6.094;2022-10-26T09:36:26;17.90;99.90
13848;DHT22;6994;49.752;6.094;2022-10-26T09:39:12;18.00;99.90
13848;DHT22;6994;49.752;6.094;2022-10-26T09:41:35;17.90;99.90
13848;DHT22;6994;49.752;6.094;2022-10-26T09:46:56;18.00;99.90
13848;DHT22;6994;49.752;6.094;2022-10-26T09:49:04;17.90;99.90
13848;DHT22;6994;49.752;6.094;2022-10-26T09:51:26;18.00;99.90
13848;DHT22;6994;49.752;6.094;2022-10-26T09:53:57;18.00;99.90
13848;DHT22;6994;49.752;6.094;2022-10-26T09:56:25;18.10;99.90
13848;DHT22;6994;49.752;6.094;2022-10-26T09:58:53;18.30;99.90
13848;DHT22;6994;49.752;6.094;2022-10-26T10:06:41;18.90;99.90
13848;DHT22;6994;49.752;6.094;2022-10-26T10:11:51;19.00;99.90
13848;DHT22;6994;49.752;6.094;2022-10-26T10:14:22;19.30;99.90
13848;DHT22;6994;49.752;6.094;2022-10-26T10:16:50;19.50;99.90
13848;DHT22;6994;49.752;6.094;2022-10-26T10:19:22;19.60;99.90
13848;DHT22;6994;49.752;6.094;2022-10-26T10:21:47;19.80;99.90
13848;DHT22;6994;49.752;6.094;2022-10-26T10:24:28;19.90;99.90
13848;DHT22;6994;49.752;6.094;2022-10-26T10:29:50;19.90;99.90
13848;DHT22;6994;49.752;6.094;2022-10-26T10:32:21;20.10;99.90
13848;DHT22;6994;49.752;6.094;2022-10-26T10:34:45;20.10;99.90
13848;DHT22;6994;49.752;6.094;2022-10-26T10:37:28;20.30;99.90
13848;DHT22;6994;49.752;6.094;2022-10-26T10:40:14;20.20;99.90
13848;DHT22;6994;49.752;6.094;2022-10-26T10:42:40;20.40;99.90
13848;DHT22;6994;49.752;6.094;2022-10-26T10:47:41;20.60;99.90
13848;DHT22;6994;49.752;6.094;2022-10-26T10:50:14;20.70;99.90
13848;DHT22;6994;49.752;6.094;2022-10-26T10:52:38;20.70;99.90
13848;DHT22;6994;49.752;6.094;2022-10-26T10:55:18;20.80;99.90
13848;DHT22;6994;49.752;6.094;2022-10-26T11:00:30;22.00;99.90
13848;DHT22;6994;49.752;6.094;2022-10-26T11:03:09;22.40;99.90
13848;DHT22;6994;49.752;6.094;2022-10-26T11:05:42;22.40;99.90
13848;DHT22;6994;49.752;6.094;2022-10-26T11:08:21;23.30;99.90
13848;DHT22;6994;49.752;6.094;2022-10-26T11:11:07;23.30;99.90
13848;DHT22;6994;49.752;6.094;2022-10-26T11:13:39;23.80;99.90
13848;DHT22;6994;49.752;6.094;2022-10-26T11:16:06;24.20;99.90
13848;DHT22;6994;49.752;6.094;2022-10-26T11:18:40;24.40;99.90
13848;DHT22;6994;49.752;6.094;2022-10-26T11:21:28;24.60;99.90
13848;DHT22;6994;49.752;6.094;2022-10-26T11:23:42;25.00;99.90
13848;DHT22;6994;49.752;6.094;2022-10-26T11:26:12;25.40;99.90
13848;DHT22;6994;49.752;6.094;2022-10-26T11:31:40;25.80;99.90
13848;DHT22;6994;49.752;6.094;2022-10-26T11:37:08;26.10;99.90
13848;DHT22;6994;49.752;6.094;2022-10-26T11:39:33;26.30;99.90
13848;DHT22;6994;49.752;6.094;2022-10-26T11:42:02;26.20;99.90
13848;DHT22;6994;49.752;6.094;2022-10-26T11:44:37;25.80;99.90
13848;DHT22;6994;49.752;6.094;2022-10-26T11:47:02;25.80;99.90
13848;DHT22;6994;49.752;6.094;2022-10-26T11:49:45;25.00;99.90
13848;DHT22;6994;49.752;6.094;2022-10-26T11:52:37;23.70;99.90
13848;DHT22;6994;49.752;6.094;2022-10-26T11:54:59;23.30;99.90
13848;DHT22;6994;49.752;6.094;2022-10-26T11:57:27;22.90;99.90
13848;DHT22;6994;49.752;6.094;2022-10-26T12:02:32;22.70;99.90
13848;DHT22;6994;49.752;6.094;2022-10-26T12:05:05;22.50;99.90
13848;DHT22;6994;49.752;6.094;2022-10-26T12:07:30;22.40;99.90
13848;DHT22;6994;49.752;6.094;2022-10-26T12:09:56;22.40;99.90
13848;DHT22;6994;49.752;6.094;2022-10-26T12:12:41;22.30;99.90
13848;DHT22;6994;49.752;6.094;2022-10-26T12:15:26;22.30;99.90
13848;DHT22;6994;49.752;6.094;2022-10-26T12:17:55;22.20;99.90
13848;DHT22;6994;49.752;6.094;2022-10-26T12:23:19;22.40;99.90
13848;DHT22;6994;49.752;6.094;2022-10-26T12:25:46;22.70;99.90
13848;DHT22;6994;49.752;6.094;2022-10-26T12:33:58;22.80;99.90
13848;DHT22;6994;49.752;6.094;2022-10-26T12:39:30;22.60;99.90
13848;DHT22;6994;49.752;6.094;2022-10-26T12:41:57;22.50;99.90
13848;DHT22;6994;49.752;6.094;2022-10-26T12:44:59;22.40;99.90
13848;DHT22;6994;49.752;6.094;2022-10-26T12:47:09;22.40;99.90
13848;DHT22;6994;49.752;6.094;2022-10-26T12:49:59;22.30;99.90
13848;DHT22;6994;49.752;6.094;2022-10-26T12:52:27;22.30;99.90
13848;DHT22;6994;49.752;6.094;2022-10-26T12:57:47;22.30;99.90
13848;DHT22;6994;49.752;6.094;2022-10-26T13:00:13;22.50;99.90
13848;DHT22;6994;49.752;6.094;2022-10-26T13:05:35;22.50;99.90
13848;DHT22;6994;49.752;6.094;2022-10-26T13:08:03;22.40;99.90
13848;DHT22;6994;49.752;6.094;2022-10-26T13:10:29;22.50;99.90
13848;DHT22;6994;49.752;6.094;2022-10-26T13:12:58;22.70;99.90
13848;DHT22;6994;49.752;6.094;2022-10-26T13:15:26;22.70;99.90
13848;DHT22;6994;49.752;6.094;2022-10-26T13:20:25;22.70;99.90
13848;DHT22;6994;49.752;6.094;2022-10-26T13:22:52;22.70;99.90
13848;DHT22;6994;49.752;6.094;2022-10-26T13:25:25;22.60;99.90
13848;DHT22;6994;49.752;6.094;2022-10-26T13:28:04;22.80;99.90
13848;DHT22;6994;49.752;6.094;2022-10-26T13:33:00;22.80;99.90
13848;DHT22;6994;49.752;6.094;2022-10-26T13:35:27;22.80;99.90
13848;DHT22;6994;49.752;6.094;2022-10-26T13:37:54;22.80;99.90
13848;DHT22;6994;49.752;6.094;2022-10-26T13:40:25;23.00;99.90
13848;DHT22;6994;49.752;6.094;2022-10-26T13:42:57;23.00;99.90
13848;DHT22;6994;49.752;6.094;2022-10-26T13:45:26;23.00;99.90
13848;DHT22;6994;49.752;6.094;2022-10-26T13:47:59;22.90;99.90
13848;DHT22;6994;49.752;6.094;2022-10-26T13:50:26;22.90;99.90
13848;DHT22;6994;49.752;6.094;2022-10-26T13:53:06;22.90;99.90
13848;DHT22;6994;49.752;6.094;2022-10-26T13:55:28;23.10;99.90
13848;DHT22;6994;49.752;6.094;2022-10-26T14:03:28;23.30;99.90
13848;DHT22;6994;49.752;6.094;2022-10-26T14:05:55;23.10;99.90
13848;DHT22;6994;49.752;6.094;2022-10-26T14:08:22;23.20;99.90
13848;DHT22;6994;49.752;6.094;2022-10-26T14:10:56;22.90;99.90
13848;DHT22;6994;49.752;6.094;2022-10-26T14:13:24;22.90;99.90
13848;DHT22;6994;49.752;6.094;2022-10-26T14:15:54;22.70;99.90
13848;DHT22;6994;49.752;6.094;2022-10-26T14:18:27;22.30;99.90
13848;DHT22;6994;49.752;6.094;2022-10-26T14:21:04;22.30;99.90
13848;DHT22;6994;49.752;6.094;2022-10-26T14:23:59;22.00;99.90
13848;DHT22;6994;49.752;6.094;2022-10-26T14:26:04;22.00;99.90
13848;DHT22;6994;49.752;6.094;2022-10-26T14:28:37;21.90;99.90
13848;DHT22;6994;49.752;6.094;2022-10-26T14:31:13;21.90;99.90
13848;DHT22;6994;49.752;6.094;2022-10-26T14:33:40;21.80;99.90
13848;DHT22;6994;49.752;6.094;2022-10-26T14:36:08;21.80;99.90
13848;DHT22;6994;49.752;6.094;2022-10-26T14:38:39;21.90;99.90
13848;DHT22;6994;49.752;6.094;2022-10-26T14:41:04;21.90;99.90
13848;DHT22;6994;49.752;6.094;2022-10-26T14:43:32;22.00;99.90
13848;DHT22;6994;49.752;6.094;2022-10-26T14:46:00;22.00;99.90
13848;DHT22;6994;49.752;6.094;2022-10-26T14:48:31;22.00;99.90
13848;DHT22;6994;49.752;6.094;2022-10-26T14:51:05;22.00;99.90
13848;DHT22;6994;49.752;6.094;2022-10-26T14:53:38;22.50;99.90
13848;DHT22;6994;49.752;6.094;2022-10-26T14:59:11;22.60;99.90
13848;DHT22;6994;49.752;6.094;2022-10-26T15:01:52;22.30;99.90
13848;DHT22;6994;49.752;6.094;2022-10-26T15:04:34;22.30;99.90
13848;DHT22;6994;49.752;6.094;2022-10-26T15:07:16;22.20;99.90
13848;DHT22;6994;49.752;6.094;2022-10-26T15:09:49;22.10;99.90
13848;DHT22;6994;49.752;6.094;2022-10-26T15:12:31;22.00;99.90
13848;DHT22;6994;49.752;6.094;2022-10-26T15:15:20;21.80;99.90
13848;DHT22;6994;49.752;6.094;2022-10-26T15:17:34;21.60;99.90
13848;DHT22;6994;49.752;6.094;2022-10-26T15:19:53;21.50;99.90
13848;DHT22;6994;49.752;6.094;2022-10-26T15:22:25;21.60;99.90
13848;DHT22;6994;49.752;6.094;2022-10-26T15:24:50;21.60;99.90
13848;DHT22;6994;49.752;6.094;2022-10-26T15:27:16;21.60;99.90
13848;DHT22;6994;49.752;6.094;2022-10-26T15:29:44;21.50;99.90
13848;DHT22;6994;49.752;6.094;2022-10-26T15:37:45;21.40;99.90
13848;DHT22;6994;49.752;6.094;2022-10-26T15:40:12;21.20;99.90
13848;DHT22;6994;49.752;6.094;2022-10-26T15:42:40;21.30;99.90
13848;DHT22;6994;49.752;6.094;2022-10-26T15:47:49;21.00;99.90
13848;DHT22;6994;49.752;6.094;2022-10-26T15:50:17;20.80;99.90
13848;DHT22;6994;49.752;6.094;2022-10-26T15:52:43;20.60;99.90
13848;DHT22;6994;49.752;6.094;2022-10-26T15:55:11;20.30;99.90
13848;DHT22;6994;49.752;6.094;2022-10-26T15:57:39;20.10;99.90
13848;DHT22;6994;49.752;6.094;2022-10-26T16:00:09;19.90;99.90
13848;DHT22;6994;49.752;6.094;2022-10-26T16:02:34;19.90;99.90
13848;DHT22;6994;49.752;6.094;2022-10-26T16:05:01;19.70;99.90
13848;DHT22;6994;49.752;6.094;2022-10-26T16:07:29;19.50;99.90
13848;DHT22;6994;49.752;6.094;2022-10-26T16:09:56;19.50;99.90
13848;DHT22;6994;49.752;6.094;2022-10-26T16:12:23;19.30;99.90
13848;DHT22;6994;49.752;6.094;2022-10-26T16:14:50;19.10;99.90
13848;DHT22;6994;49.752;6.094;2022-10-26T16:17:17;18.90;99.90
13848;DHT22;6994;49.752;6.094;2022-10-26T16:19:46;18.40;99.90
13848;DHT22;6994;49.752;6.094;2022-10-26T16:22:13;18.10;99.90
13848;DHT22;6994;49.752;6.094;2022-10-26T16:24:41;17.90;99.90
13848;DHT22;6994;49.752;6.094;2022-10-26T16:27:09;17.70;99.90
13848;DHT22;6994;49.752;6.094;2022-10-26T16:29:37;17.50;99.90
13848;DHT22;6994;49.752;6.094;2022-10-26T16:32:05;17.50;99.90
13848;DHT22;6994;49.752;6.094;2022-10-26T16:34:32;17.30;99.90
13848;DHT22;6994;49.752;6.094;2022-10-26T16:36:59;17.10;99.90
13848;DHT22;6994;49.752;6.094;2022-10-26T16:39:26;17.00;99.90
13848;DHT22;6994;49.752;6.094;2022-10-26T16:41:53;16.80;99.90
13848;DHT22;6994;49.752;6.094;2022-10-26T16:44:21;16.90;99.90
13848;DHT22;6994;49.752;6.094;2022-10-26T16:46:48;17.00;99.90
13848;DHT22;6994;49.752;6.094;2022-10-26T16:49:16;16.70;99.90
13848;DHT22;6994;49.752;6.094;2022-10-26T16:51:43;16.60;99.90
13848;DHT22;6994;49.752;6.094;2022-10-26T16:54:10;16.50;99.90
13848;DHT22;6994;49.752;6.094;2022-10-26T16:56:37;16.30;99.90
13848;DHT22;6994;49.752;6.094;2022-10-26T16:59:05;16.20;99.90
13848;DHT22;6994;49.752;6.094;2022-10-26T17:01:32;16.00;99.90
13848;DHT22;6994;49.752;6.094;2022-10-26T17:04:00;15.70;99.90
13848;DHT22;6994;49.752;6.094;2022-10-26T17:06:27;15.70;99.90
13848;DHT22;6994;49.752;6.094;2022-10-26T17:08:54;15.70;99.90
13848;DHT22;6994;49.752;6.094;2022-10-26T17:11:21;15.50;99.90
13848;DHT22;6994;49.752;6.094;2022-10-26T17:13:51;15.40;99.90
13848;DHT22;6994;49.752;6.094;2022-10-26T17:16:17;15.30;99.90
13848;DHT22;6994;49.752;6.094;2022-10-26T17:18:43;15.40;99.90
13848;DHT22;6994;49.752;6.094;2022-10-26T17:21:11;15.40;99.90
13848;DHT22;6994;49.752;6.094;2022-10-26T17:23:37;15.20;99.90
13848;DHT22;6994;49.752;6.094;2022-10-26T17:26:05;15.20;99.90
13848;DHT22;6994;49.752;6.094;2022-10-26T17:28:33;14.90;99.90
13848;DHT22;6994;49.752;6.094;2022-10-26T17:31:10;14.90;99.90
13848;DHT22;6994;49.752;6.094;2022-10-26T17:33:36;14.90;99.90
13848;DHT22;6994;49.752;6.094;2022-10-26T17:36:03;14.70;99.90
13848;DHT22;6994;49.752;6.094;2022-10-26T17:38:31;14.60;99.90
13848;DHT22;6994;49.752;6.094;2022-10-26T17:40:59;14.50;99.90
13848;DHT22;6994;49.752;6.094;2022-10-26T17:43:28;14.50;99.90
13848;DHT22;6994;49.752;6.094;2022-10-26T17:45:56;14.40;99.90
13848;DHT22;6994;49.752;6.094;2022-10-26T17:48:20;14.30;99.90
13848;DHT22;6994;49.752;6.094;2022-10-26T17:50:47;14.20;99.90
13848;DHT22;6994;49.752;6.094;2022-10-26T17:53:14;14.20;99.90